sensor_id;sensor_type;location;lat;lon;timestamp;pressure;altitude;pressure_sealevel;temperature;humidity
46223;BME280;31943;51.410;7.564;2023-06-24T00:02:19;101146.72;;;18.38;62.51
46223;BME280;31943;51.410;7.564;2023-06-24T00:04:47;101138.81;;;18.35;62.60
46223;BME280;31943;51.410;7.564;2023-06-24T00:07:12;101146.75;;;18.32;62.46
46223;BME280;31943;51.410;7.564;2023-06-24T00:09:38;101146.78;;;18.29;62.20
46223;BME280;31943;51.410;7.564;2023-06-24T00:12:04;101141.53;;;18.25;62.84
46223;BME280;31943;51.410;7.564;2023-06-24T00:14:30;101139.78;;;18.21;62.63
46223;BME280;31943;51.410;7.564;2023-06-24T00:16:56;101143.34;;;18.18;62.82
46223;BME280;31943;51.410;7.564;2023-06-24T00:19:24;101143.34;;;18.15;62.78
46223;BME280;31943;51.410;7.564;2023-06-24T00:21:52;101141.63;;;18.14;62.83
46223;BME280;31943;51.410;7.564;2023-06-24T00:24:18;101142.53;;;18.11;62.99
46223;BME280;31943;51.410;7.564;2023-06-24T00:26:45;101144.31;;;18.08;63.13
46223;BME280;31943;51.410;7.564;2023-06-24T00:29:11;101141.66;;;18.06;63.13
46223;BME280;31943;51.410;7.564;2023-06-24T00:31:36;101144.31;;;18.03;63.06
46223;BME280;31943;51.410;7.564;2023-06-24T00:34:02;101139.06;;;18.00;63.12
46223;BME280;31943;51.410;7.564;2023-06-24T00:36:28;101130.28;;;17.96;63.41
46223;BME280;31943;51.410;7.564;2023-06-24T00:38:55;101135.56;;;17.93;63.09
46223;BME280;31943;51.410;7.564;2023-06-24T00:41:20;101132.97;;;17.92;62.88
46223;BME280;31943;51.410;7.564;2023-06-24T00:43:46;101136.47;;;17.92;62.84
46223;BME280;31943;51.410;7.564;2023-06-24T00:46:12;101133.84;;;17.91;62.59
46223;BME280;31943;51.410;7.564;2023-06-24T00:48:38;101136.50;;;17.88;63.13
46223;BME280;31943;51.410;7.564;2023-06-24T00:51:04;101128.59;;;17.86;62.83
46223;BME280;31943;51.410;7.564;2023-06-24T00:53:30;101134.75;;;17.84;63.18
46223;BME280;31943;51.410;7.564;2023-06-24T00:55:58;101135.63;;;17.83;63.19
46223;BME280;31943;51.410;7.564;2023-06-24T00:58:25;101139.16;;;17.80;63.25
46223;BME280;31943;51.410;7.564;2023-06-24T01:00:50;101132.97;;;17.81;63.16
46223;BME280;31943;51.410;7.564;2023-06-24T01:03:16;101141.75;;;17.82;63.01
46223;BME280;31943;51.410;7.564;2023-06-24T01:05:43;101146.22;;;17.78;62.64
46223;BME280;31943;51.410;7.564;2023-06-24T01:08:10;101142.72;;;17.73;63.12
46223;BME280;31943;51.410;7.564;2023-06-24T01:10:36;101140.97;;;17.70;62.87
46223;BME280;31943;51.410;7.564;2023-06-24T01:13:03;101133.91;;;17.69;62.88
46223;BME280;31943;51.410;7.564;2023-06-24T01:15:28;101136.56;;;17.68;63.24
46223;BME280;31943;51.410;7.564;2023-06-24T01:17:57;101143.63;;;17.67;63.56
46223;BME280;31943;51.410;7.564;2023-06-24T01:20:27;101139.22;;;17.65;63.14
46223;BME280;31943;51.410;7.564;2023-06-24T01:23:11;101143.66;;;17.63;62.95
46223;BME280;31943;51.410;7.564;2023-06-24T01:25:57;101134.84;;;17.56;63.24
46223;BME280;31943;51.410;7.564;2023-06-24T01:28:44;101137.53;;;17.54;63.12
46223;BME280;31943;51.410;7.564;2023-06-24T01:31:31;101142.81;;;17.54;63.34
46223;BME280;31943;51.410;7.564;2023-06-24T01:34:03;101125.19;;;17.53;62.93
46223;BME280;31943;51.410;7.564;2023-06-24T01:36:34;101125.19;;;17.50;63.28
46223;BME280;31943;51.410;7.564;2023-06-24T01:39:02;101119.06;;;17.48;63.11
46223;BME280;31943;51.410;7.564;2023-06-24T01:41:32;101116.44;;;17.45;63.39
46223;BME280;31943;51.410;7.564;2023-06-24T01:44:00;101118.19;;;17.46;63.36
46223;BME280;31943;51.410;7.564;2023-06-24T01:46:29;101116.44;;;17.47;63.28
46223;BME280;31943;51.410;7.564;2023-06-24T01:48:57;101111.19;;;17.47;63.06
46223;BME280;31943;51.410;7.564;2023-06-24T01:51:24;101110.31;;;17.45;63.12
46223;BME280;31943;51.410;7.564;2023-06-24T01:53:54;101118.22;;;17.40;63.12
46223;BME280;31943;51.410;7.564;2023-06-24T01:56:25;101121.75;;;17.37;63.16
46223;BME280;31943;51.410;7.564;2023-06-24T01:58:53;101122.66;;;17.35;63.32
46223;BME280;31943;51.410;7.564;2023-06-24T02:01:21;101126.16;;;17.34;63.16
46223;BME280;31943;51.410;7.564;2023-06-24T02:03:49;101124.41;;;17.34;63.46
46223;BME280;31943;51.410;7.564;2023-06-24T02:06:16;101130.56;;;17.32;63.74
46223;BME280;31943;51.410;7.564;2023-06-24T02:08:43;101122.69;;;17.27;63.50
46223;BME280;31943;51.410;7.564;2023-06-24T02:11:12;101135.00;;;17.25;63.69
46223;BME280;31943;51.410;7.564;2023-06-24T02:13:39;101122.69;;;17.23;63.50
46223;BME280;31943;51.410;7.564;2023-06-24T02:16:06;101124.47;;;17.19;63.55
46223;BME280;31943;51.410;7.564;2023-06-24T02:18:34;101120.06;;;17.19;63.81
46223;BME280;31943;51.410;7.564;2023-06-24T02:21:03;101132.34;;;17.20;63.77
46223;BME280;31943;51.410;7.564;2023-06-24T02:23:33;101124.47;;;17.17;63.76
46223;BME280;31943;51.410;7.564;2023-06-24T02:26:01;101127.13;;;17.17;63.62
46223;BME280;31943;51.410;7.564;2023-06-24T02:28:28;101122.72;;;17.15;63.52
46223;BME280;31943;51.410;7.564;2023-06-24T02:30:54;101125.38;;;17.13;63.27
46223;BME280;31943;51.410;7.564;2023-06-24T02:33:21;101128.91;;;17.09;63.63
46223;BME280;31943;51.410;7.564;2023-06-24T02:35:47;101128.03;;;17.06;63.27
46223;BME280;31943;51.410;7.564;2023-06-24T02:38:14;101129.78;;;17.04;63.33
46223;BME280;31943;51.410;7.564;2023-06-24T02:40:40;101125.41;;;16.99;63.76
46223;BME280;31943;51.410;7.564;2023-06-24T02:43:05;101126.28;;;16.97;63.95
46223;BME280;31943;51.410;7.564;2023-06-24T02:45:32;101130.69;;;16.98;64.12
46223;BME280;31943;51.410;7.564;2023-06-24T02:47:59;101128.03;;;16.98;63.67
46223;BME280;31943;51.410;7.564;2023-06-24T02:50:25;101127.16;;;16.96;63.97
46223;BME280;31943;51.410;7.564;2023-06-24T02:52:52;101126.28;;;16.95;63.90
46223;BME280;31943;51.410;7.564;2023-06-24T02:55:20;101128.94;;;16.94;64.00
46223;BME280;31943;51.410;7.564;2023-06-24T02:57:46;101128.94;;;16.91;63.87
46223;BME280;31943;51.410;7.564;2023-06-24T03:00:13;101134.19;;;16.91;63.92
46223;BME280;31943;51.410;7.564;2023-06-24T03:02:39;101133.34;;;16.90;63.80
46223;BME280;31943;51.410;7.564;2023-06-24T03:05:06;101129.78;;;16.91;63.66
46223;BME280;31943;51.410;7.564;2023-06-24T03:07:33;101124.56;;;16.90;63.99
46223;BME280;31943;51.410;7.564;2023-06-24T03:09:58;101125.41;;;16.90;63.86
46223;BME280;31943;51.410;7.564;2023-06-24T03:12:26;101130.69;;;16.92;63.83
46223;BME280;31943;51.410;7.564;2023-06-24T03:14:51;101121.91;;;16.90;63.93
46223;BME280;31943;51.410;7.564;2023-06-24T03:17:17;101128.94;;;16.89;63.81
46223;BME280;31943;51.410;7.564;2023-06-24T03:19:43;101121.91;;;16.87;63.98
46223;BME280;31943;51.410;7.564;2023-06-24T03:22:09;101128.94;;;16.82;64.01
46223;BME280;31943;51.410;7.564;2023-06-24T03:24:34;101132.44;;;16.80;64.37
46223;BME280;31943;51.410;7.564;2023-06-24T03:27:00;101136.84;;;16.80;64.20
46223;BME280;31943;51.410;7.564;2023-06-24T03:29:27;101142.97;;;16.80;64.09
46223;BME280;31943;51.410;7.564;2023-06-24T03:31:52;101133.31;;;16.79;64.13
46223;BME280;31943;51.410;7.564;2023-06-24T03:34:18;101129.78;;;16.77;64.29
46223;BME280;31943;51.410;7.564;2023-06-24T03:36:44;101135.97;;;16.76;64.11
46223;BME280;31943;51.410;7.564;2023-06-24T03:39:09;101135.09;;;16.76;64.54
46223;BME280;31943;51.410;7.564;2023-06-24T03:41:35;101137.72;;;16.76;64.20
46223;BME280;31943;51.410;7.564;2023-06-24T03:44:00;101128.91;;;16.75;64.66
46223;BME280;31943;51.410;7.564;2023-06-24T03:46:28;101129.81;;;16.74;64.48
46223;BME280;31943;51.410;7.564;2023-06-24T03:48:53;101134.19;;;16.75;64.29
46223;BME280;31943;51.410;7.564;2023-06-24T03:51:19;101135.94;;;16.79;64.56
46223;BME280;31943;51.410;7.564;2023-06-24T03:53:44;101133.31;;;16.81;64.27
46223;BME280;31943;51.410;7.564;2023-06-24T03:56:10;101134.22;;;16.83;64.44
46223;BME280;31943;51.410;7.564;2023-06-24T03:58:37;101137.72;;;16.84;64.39
46223;BME280;31943;51.410;7.564;2023-06-24T04:01:03;101129.81;;;16.84;64.40
46223;BME280;31943;51.410;7.564;2023-06-24T04:03:30;101134.22;;;16.86;64.58
46223;BME280;31943;51.410;7.564;2023-06-24T04:05:55;101143.00;;;16.87;64.63
46223;BME280;31943;51.410;7.564;2023-06-24T04:08:21;101133.34;;;16.84;64.58
46223;BME280;31943;51.410;7.564;2023-06-24T04:10:48;101149.13;;;16.87;64.91
46223;BME280;31943;51.410;7.564;2023-06-24T04:13:14;101150.03;;;16.91;64.97
46223;BME280;31943;51.410;7.564;2023-06-24T04:15:40;101149.13;;;16.95;64.76
46223;BME280;31943;51.410;7.564;2023-06-24T04:18:05;101149.13;;;16.98;64.88
46223;BME280;31943;51.410;7.564;2023-06-24T04:20:32;101142.09;;;17.00;64.59
46223;BME280;31943;51.410;7.564;2023-06-24T04:22:58;101147.34;;;17.03;64.85
46223;BME280;31943;51.410;7.564;2023-06-24T04:25:23;101145.59;;;17.07;65.14
46223;BME280;31943;51.410;7.564;2023-06-24T04:27:49;101145.59;;;17.11;65.52
46223;BME280;31943;51.410;7.564;2023-06-24T04:30:15;101151.72;;;17.15;65.48
46223;BME280;31943;51.410;7.564;2023-06-24T04:32:42;101148.22;;;17.19;65.68
46223;BME280;31943;51.410;7.564;2023-06-24T04:35:08;101155.19;;;17.25;65.60
46223;BME280;31943;51.410;7.564;2023-06-24T04:37:37;101149.94;;;17.31;65.76
46223;BME280;31943;51.410;7.564;2023-06-24T04:40:03;101156.06;;;17.36;66.19
46223;BME280;31943;51.410;7.564;2023-06-24T04:42:29;101151.66;;;17.38;66.23
46223;BME280;31943;51.410;7.564;2023-06-24T04:44:55;101149.00;;;17.41;66.13
46223;BME280;31943;51.410;7.564;2023-06-24T04:47:21;101152.50;;;17.46;66.07
46223;BME280;31943;51.410;7.564;2023-06-24T04:49:46;101147.22;;;17.49;65.73
46223;BME280;31943;51.410;7.564;2023-06-24T04:54:39;101140.13;;;17.56;66.01
46223;BME280;31943;51.410;7.564;2023-06-24T04:57:09;101147.16;;;17.60;65.65
46223;BME280;31943;51.410;7.564;2023-06-24T04:59:35;101151.56;;;17.64;65.86
46223;BME280;31943;51.410;7.564;2023-06-24T05:02:00;101148.88;;;17.67;65.51
46223;BME280;31943;51.410;7.564;2023-06-24T05:04:26;101139.19;;;17.72;65.31
46223;BME280;31943;51.410;7.564;2023-06-24T05:06:51;101142.66;;;17.77;65.87
46223;BME280;31943;51.410;7.564;2023-06-24T05:09:17;101142.66;;;17.82;65.60
46223;BME280;31943;51.410;7.564;2023-06-24T05:11:46;101141.78;;;17.86;65.60
46223;BME280;31943;51.410;7.564;2023-06-24T05:14:13;101139.97;;;17.94;65.23
46223;BME280;31943;51.410;7.564;2023-06-24T05:16:38;101147.84;;;18.02;65.30
46223;BME280;31943;51.410;7.564;2023-06-24T05:19:04;101148.69;;;18.09;65.04
46223;BME280;31943;51.410;7.564;2023-06-24T05:21:32;101141.63;;;18.15;64.47
46223;BME280;31943;51.410;7.564;2023-06-24T05:23:58;101143.28;;;18.27;64.39
46223;BME280;31943;51.410;7.564;2023-06-24T05:26:23;101147.59;;;18.37;64.35
46223;BME280;31943;51.410;7.564;2023-06-24T05:28:50;101139.63;;;18.47;64.40
46223;BME280;31943;51.410;7.564;2023-06-24T05:31:16;101142.22;;;18.51;63.90
46223;BME280;31943;51.410;7.564;2023-06-24T05:33:42;101144.84;;;18.54;64.08
46223;BME280;31943;51.410;7.564;2023-06-24T05:36:08;101139.50;;;18.57;64.05
46223;BME280;31943;51.410;7.564;2023-06-24T05:38:35;101133.28;;;18.63;64.21
46223;BME280;31943;51.410;7.564;2023-06-24T05:41:02;101140.28;;;18.72;64.10
46223;BME280;31943;51.410;7.564;2023-06-24T05:43:27;101141.09;;;18.75;64.06
46223;BME280;31943;51.410;7.564;2023-06-24T05:45:56;101130.47;;;18.85;63.73
46223;BME280;31943;51.410;7.564;2023-06-24T05:48:23;101137.47;;;18.93;63.52
46223;BME280;31943;51.410;7.564;2023-06-24T05:50:49;101134.69;;;19.01;63.64
46223;BME280;31943;51.410;7.564;2023-06-24T05:53:15;101139.03;;;19.10;63.62
46223;BME280;31943;51.410;7.564;2023-06-24T05:55:42;101137.25;;;19.09;63.50
46223;BME280;31943;51.410;7.564;2023-06-24T05:58:07;101138.16;;;19.09;63.68
46223;BME280;31943;51.410;7.564;2023-06-24T06:00:33;101139.06;;;19.07;63.43
46223;BME280;31943;51.410;7.564;2023-06-24T06:03:01;101137.22;;;19.13;63.78
46223;BME280;31943;51.410;7.564;2023-06-24T06:05:27;101143.34;;;19.19;64.02
46223;BME280;31943;51.410;7.564;2023-06-24T06:07:52;101137.16;;;19.18;64.18
46223;BME280;31943;51.410;7.564;2023-06-24T06:10:18;101138.97;;;19.16;64.05
46223;BME280;31943;51.410;7.564;2023-06-24T06:12:44;101145.03;;;19.23;63.57
46223;BME280;31943;51.410;7.564;2023-06-24T06:15:10;101140.50;;;19.34;63.21
46223;BME280;31943;51.410;7.564;2023-06-24T06:17:36;101141.25;;;19.45;62.83
46223;BME280;31943;51.410;7.564;2023-06-24T06:20:04;101138.31;;;19.71;62.72
46223;BME280;31943;51.410;7.564;2023-06-24T06:22:30;101137.25;;;19.83;62.65
46223;BME280;31943;51.410;7.564;2023-06-24T06:24:55;101140.75;;;19.85;62.43
46223;BME280;31943;51.410;7.564;2023-06-24T06:27:21;101152.28;;;19.81;62.25
46223;BME280;31943;51.410;7.564;2023-06-24T06:29:47;101147.06;;;19.77;62.20
46223;BME280;31943;51.410;7.564;2023-06-24T06:32:13;101147.91;;;19.82;62.26
46223;BME280;31943;51.410;7.564;2023-06-24T06:34:38;101147.75;;;19.89;62.43
46223;BME280;31943;51.410;7.564;2023-06-24T06:37:06;101142.31;;;20.00;62.69
46223;BME280;31943;51.410;7.564;2023-06-24T06:39:32;101149.13;;;20.18;61.61
46223;BME280;31943;51.410;7.564;2023-06-24T06:41:57;101144.56;;;20.26;61.66
46223;BME280;31943;51.410;7.564;2023-06-24T06:44:23;101144.53;;;20.29;62.08
46223;BME280;31943;51.410;7.564;2023-06-24T06:46:49;101146.03;;;20.44;61.48
46223;BME280;31943;51.410;7.564;2023-06-24T06:49:15;101151.94;;;20.65;61.18
46223;BME280;31943;51.410;7.564;2023-06-24T06:51:42;101159.28;;;20.99;60.56
46223;BME280;31943;51.410;7.564;2023-06-24T06:54:09;101157.72;;;21.33;59.71
46223;BME280;31943;51.410;7.564;2023-06-24T06:56:35;101156.34;;;21.58;59.41
46223;BME280;31943;51.410;7.564;2023-06-24T06:59:01;101153.63;;;21.62;59.22
46223;BME280;31943;51.410;7.564;2023-06-24T07:01:29;101161.38;;;21.71;58.89
46223;BME280;31943;51.410;7.564;2023-06-24T07:03:55;101157.34;;;21.94;58.52
46223;BME280;31943;51.410;7.564;2023-06-24T07:06:21;101157.00;;;22.09;57.98
46223;BME280;31943;51.410;7.564;2023-06-24T07:08:46;101155.22;;;22.10;57.73
46223;BME280;31943;51.410;7.564;2023-06-24T07:11:15;101152.84;;;21.98;57.76
46223;BME280;31943;51.410;7.564;2023-06-24T07:13:41;101159.44;;;21.80;58.53
46223;BME280;31943;51.410;7.564;2023-06-24T07:16:07;101162.50;;;21.60;58.48
46223;BME280;31943;51.410;7.564;2023-06-24T07:18:32;101166.28;;;21.49;59.31
46223;BME280;31943;51.410;7.564;2023-06-24T07:21:00;101156.34;;;21.59;59.33
46223;BME280;31943;51.410;7.564;2023-06-24T07:23:26;101155.06;;;21.77;58.96
46223;BME280;31943;51.410;7.564;2023-06-24T07:25:51;101157.16;;;22.03;58.59
46223;BME280;31943;51.410;7.564;2023-06-24T07:28:19;101147.56;;;22.35;57.62
46223;BME280;31943;51.410;7.564;2023-06-24T07:30:44;101153.84;;;22.67;57.00
46223;BME280;31943;51.410;7.564;2023-06-24T07:33:11;101155.69;;;22.99;56.13
46223;BME280;31943;51.410;7.564;2023-06-24T07:35:37;101157.63;;;23.25;55.60
46223;BME280;31943;51.410;7.564;2023-06-24T07:38:03;101154.56;;;23.39;54.21
46223;BME280;31943;51.410;7.564;2023-06-24T07:40:29;101156.31;;;23.40;54.79
46223;BME280;31943;51.410;7.564;2023-06-24T07:42:54;101154.63;;;23.67;54.23
46223;BME280;31943;51.410;7.564;2023-06-24T07:45:21;101157.84;;;23.80;53.64
46223;BME280;31943;51.410;7.564;2023-06-24T07:47:47;101153.81;;;23.95;53.59
46223;BME280;31943;51.410;7.564;2023-06-24T07:50:12;101163.59;;;23.95;53.16
46223;BME280;31943;51.410;7.564;2023-06-24T07:52:38;101160.22;;;23.90;52.59
46223;BME280;31943;51.410;7.564;2023-06-24T07:55:05;101149.50;;;23.91;52.58
46223;BME280;31943;51.410;7.564;2023-06-24T07:57:32;101148.13;;;24.07;51.89
46223;BME280;31943;51.410;7.564;2023-06-24T07:59:58;101150.75;;;24.09;51.30
46223;BME280;31943;51.410;7.564;2023-06-24T08:02:25;101150.03;;;24.31;52.32
46223;BME280;31943;51.410;7.564;2023-06-24T08:04:51;101148.84;;;24.39;51.13
46223;BME280;31943;51.410;7.564;2023-06-24T08:07:16;101157.16;;;24.58;50.63
46223;BME280;31943;51.410;7.564;2023-06-24T08:09:42;101154.50;;;24.58;50.77
46223;BME280;31943;51.410;7.564;2023-06-24T08:12:08;101157.28;;;24.54;49.96
46223;BME280;31943;51.410;7.564;2023-06-24T08:14:34;101156.78;;;24.69;50.05
46223;BME280;31943;51.410;7.564;2023-06-24T08:17:01;101156.09;;;24.64;50.81
46223;BME280;31943;51.410;7.564;2023-06-24T08:19:29;101150.00;;;24.59;51.60
46223;BME280;31943;51.410;7.564;2023-06-24T08:21:56;101151.34;;;24.72;51.67
46223;BME280;31943;51.410;7.564;2023-06-24T08:24:22;101151.19;;;24.77;51.50
46223;BME280;31943;51.410;7.564;2023-06-24T08:26:47;101141.06;;;24.60;50.50
46223;BME280;31943;51.410;7.564;2023-06-24T08:29:13;101146.56;;;24.55;50.16
46223;BME280;31943;51.410;7.564;2023-06-24T08:31:39;101145.44;;;24.62;50.67
46223;BME280;31943;51.410;7.564;2023-06-24T08:34:06;101147.03;;;24.68;50.37
46223;BME280;31943;51.410;7.564;2023-06-24T08:36:33;101142.91;;;24.84;51.06
46223;BME280;31943;51.410;7.564;2023-06-24T08:38:59;101141.44;;;24.76;50.26
46223;BME280;31943;51.410;7.564;2023-06-24T08:41:25;101143.28;;;24.99;49.57
46223;BME280;31943;51.410;7.564;2023-06-24T08:43:51;101130.38;;;25.37;48.60
46223;BME280;31943;51.410;7.564;2023-06-24T08:46:18;101132.50;;;25.74;48.29
46223;BME280;31943;51.410;7.564;2023-06-24T08:48:45;101131.44;;;25.78;48.83
46223;BME280;31943;51.410;7.564;2023-06-24T08:51:18;101132.81;;;25.43;48.01
46223;BME280;31943;51.410;7.564;2023-06-24T08:53:49;101136.81;;;25.31;48.38
46223;BME280;31943;51.410;7.564;2023-06-24T08:56:15;101137.47;;;25.36;48.08
46223;BME280;31943;51.410;7.564;2023-06-24T08:58:42;101136.25;;;25.21;48.94
46223;BME280;31943;51.410;7.564;2023-06-24T09:01:08;101136.63;;;25.11;48.45
46223;BME280;31943;51.410;7.564;2023-06-24T09:03:34;101141.53;;;24.98;49.46
46223;BME280;31943;51.410;7.564;2023-06-24T09:06:00;101148.06;;;24.89;48.65
46223;BME280;31943;51.410;7.564;2023-06-24T09:08:28;101141.97;;;25.11;48.63
46223;BME280;31943;51.410;7.564;2023-06-24T09:10:55;101137.13;;;25.22;48.73
46223;BME280;31943;51.410;7.564;2023-06-24T09:13:27;101134.66;;;25.16;48.90
46223;BME280;31943;51.410;7.564;2023-06-24T09:15:59;101134.72;;;25.39;48.30
46223;BME280;31943;51.410;7.564;2023-06-24T09:18:31;101129.38;;;25.39;47.40
46223;BME280;31943;51.410;7.564;2023-06-24T09:20:57;101127.78;;;25.57;47.50
46223;BME280;31943;51.410;7.564;2023-06-24T09:23:25;101131.66;;;25.50;47.35
46223;BME280;31943;51.410;7.564;2023-06-24T09:25:57;101130.19;;;25.41;47.81
46223;BME280;31943;51.410;7.564;2023-06-24T09:28:26;101124.50;;;25.51;48.06
46223;BME280;31943;51.410;7.564;2023-06-24T09:31:04;101129.47;;;25.36;48.41
46223;BME280;31943;51.410;7.564;2023-06-24T09:33:31;101124.66;;;25.22;49.09
46223;BME280;31943;51.410;7.564;2023-06-24T09:35:57;101125.25;;;25.31;48.17
46223;BME280;31943;51.410;7.564;2023-06-24T09:38:32;101121.78;;;25.74;48.36
46223;BME280;31943;51.410;7.564;2023-06-24T09:41:03;101118.97;;;26.01;47.08
46223;BME280;31943;51.410;7.564;2023-06-24T09:43:29;101113.13;;;26.13;46.38
46223;BME280;31943;51.410;7.564;2023-06-24T09:45:55;101106.56;;;26.20;46.57
46223;BME280;31943;51.410;7.564;2023-06-24T09:48:21;101107.06;;;26.30;46.62
46223;BME280;31943;51.410;7.564;2023-06-24T09:50:47;101109.91;;;26.05;47.33
46223;BME280;31943;51.410;7.564;2023-06-24T09:53:13;101108.06;;;25.83;48.05
46223;BME280;31943;51.410;7.564;2023-06-24T09:55:39;101102.25;;;25.96;47.83
46223;BME280;31943;51.410;7.564;2023-06-24T09:58:06;101103.25;;;26.15;47.10
46223;BME280;31943;51.410;7.564;2023-06-24T10:00:32;101099.53;;;26.40;46.48
46223;BME280;31943;51.410;7.564;2023-06-24T10:02:58;101095.34;;;26.55;45.34
46223;BME280;31943;51.410;7.564;2023-06-24T10:05:24;101095.78;;;26.66;45.27
46223;BME280;31943;51.410;7.564;2023-06-24T10:07:50;101092.22;;;26.86;45.72
46223;BME280;31943;51.410;7.564;2023-06-24T10:10:15;101087.53;;;27.10;44.94
46223;BME280;31943;51.410;7.564;2023-06-24T10:12:41;101085.06;;;27.26;45.02
46223;BME280;31943;51.410;7.564;2023-06-24T10:15:10;101089.38;;;27.10;45.10
46223;BME280;31943;51.410;7.564;2023-06-24T10:17:37;101088.03;;;26.60;45.54
46223;BME280;31943;51.410;7.564;2023-06-24T10:20:06;101083.66;;;26.56;45.68
46223;BME280;31943;51.410;7.564;2023-06-24T10:22:32;101068.44;;;26.78;45.21
46223;BME280;31943;51.410;7.564;2023-06-24T10:25:00;101065.38;;;27.07;44.78
46223;BME280;31943;51.410;7.564;2023-06-24T10:27:28;101059.72;;;27.13;45.40
46223;BME280;31943;51.410;7.564;2023-06-24T10:29:54;101072.38;;;27.30;44.92
46223;BME280;31943;51.410;7.564;2023-06-24T10:32:22;101063.25;;;27.34;43.72
46223;BME280;31943;51.410;7.564;2023-06-24T10:34:53;101056.31;;;27.49;43.16
46223;BME280;31943;51.410;7.564;2023-06-24T10:37:20;101052.09;;;27.62;43.01
46223;BME280;31943;51.410;7.564;2023-06-24T10:39:50;101050.41;;;27.78;42.79
46223;BME280;31943;51.410;7.564;2023-06-24T10:42:36;101040.66;;;27.95;43.01
46223;BME280;31943;51.410;7.564;2023-06-24T10:45:17;101046.13;;;28.11;42.41
46223;BME280;31943;51.410;7.564;2023-06-24T10:47:50;101036.13;;;28.14;41.18
46223;BME280;31943;51.410;7.564;2023-06-24T10:50:21;101046.25;;;28.27;41.35
46223;BME280;31943;51.410;7.564;2023-06-24T10:52:47;101037.41;;;28.25;40.34
46223;BME280;31943;51.410;7.564;2023-06-24T10:55:14;101037.56;;;28.39;40.06
46223;BME280;31943;51.410;7.564;2023-06-24T10:57:40;101035.25;;;28.49;39.80
46223;BME280;31943;51.410;7.564;2023-06-24T11:00:07;101043.00;;;28.55;39.51
46223;BME280;31943;51.410;7.564;2023-06-24T11:02:34;101037.69;;;28.18;40.14
46223;BME280;31943;51.410;7.564;2023-06-24T11:05:05;101031.38;;;28.02;40.70
46223;BME280;31943;51.410;7.564;2023-06-24T11:07:36;101030.53;;;28.02;40.94
46223;BME280;31943;51.410;7.564;2023-06-24T11:10:04;101031.06;;;28.26;40.84
46223;BME280;31943;51.410;7.564;2023-06-24T11:12:31;101031.88;;;28.63;40.05
46223;BME280;31943;51.410;7.564;2023-06-24T11:14:59;101028.09;;;28.83;39.70
46223;BME280;31943;51.410;7.564;2023-06-24T11:17:25;101033.50;;;28.98;39.58
46223;BME280;31943;51.410;7.564;2023-06-24T11:19:52;101027.56;;;29.09;37.28
46223;BME280;31943;51.410;7.564;2023-06-24T11:22:22;101020.06;;;29.16;38.43
46223;BME280;31943;51.410;7.564;2023-06-24T11:24:48;101023.34;;;29.21;37.45
46223;BME280;31943;51.410;7.564;2023-06-24T11:27:13;101020.44;;;29.08;37.80
46223;BME280;31943;51.410;7.564;2023-06-24T11:29:40;101011.28;;;28.79;37.51
46223;BME280;31943;51.410;7.564;2023-06-24T11:32:08;101010.22;;;28.66;38.06
46223;BME280;31943;51.410;7.564;2023-06-24T11:34:35;101012.97;;;28.82;38.08
46223;BME280;31943;51.410;7.564;2023-06-24T11:37:09;101020.84;;;28.85;37.71
46223;BME280;31943;51.410;7.564;2023-06-24T11:39:36;101019.78;;;28.87;36.53
46223;BME280;31943;51.410;7.564;2023-06-24T11:42:06;101015.56;;;28.99;38.49
46223;BME280;31943;51.410;7.564;2023-06-24T11:44:32;101020.78;;;28.69;37.78
46223;BME280;31943;51.410;7.564;2023-06-24T11:47:03;101010.38;;;28.28;37.63
46223;BME280;31943;51.410;7.564;2023-06-24T11:49:29;101016.88;;;28.24;38.02
46223;BME280;31943;51.410;7.564;2023-06-24T11:51:54;101020.47;;;28.23;39.16
46223;BME280;31943;51.410;7.564;2023-06-24T11:54:21;101020.88;;;28.32;38.67
46223;BME280;31943;51.410;7.564;2023-06-24T11:56:51;101012.84;;;28.15;37.96
46223;BME280;31943;51.410;7.564;2023-06-24T11:59:17;101011.03;;;28.33;37.43
46223;BME280;31943;51.410;7.564;2023-06-24T12:01:43;101003.75;;;28.35;37.48
46223;BME280;31943;51.410;7.564;2023-06-24T12:04:10;101012.28;;;28.61;36.96
46223;BME280;31943;51.410;7.564;2023-06-24T12:06:35;100999.31;;;28.69;36.00
46223;BME280;31943;51.410;7.564;2023-06-24T12:09:02;100993.88;;;28.70;36.80
46223;BME280;31943;51.410;7.564;2023-06-24T12:11:28;100999.53;;;28.82;36.58
46223;BME280;31943;51.410;7.564;2023-06-24T12:13:55;100994.03;;;28.83;35.38
46223;BME280;31943;51.410;7.564;2023-06-24T12:16:21;100999.31;;;28.69;36.44
46223;BME280;31943;51.410;7.564;2023-06-24T12:18:46;100986.47;;;28.91;35.81
46223;BME280;31943;51.410;7.564;2023-06-24T12:21:12;100986.72;;;29.03;35.15
46223;BME280;31943;51.410;7.564;2023-06-24T12:23:38;100984.34;;;29.14;35.67
46223;BME280;31943;51.410;7.564;2023-06-24T12:26:03;100980.22;;;29.07;34.92
46223;BME280;31943;51.410;7.564;2023-06-24T12:28:29;100980.31;;;28.89;36.23
46223;BME280;31943;51.410;7.564;2023-06-24T12:30:57;100983.13;;;28.70;36.23
46223;BME280;31943;51.410;7.564;2023-06-24T12:33:23;100972.66;;;28.82;34.70
46223;BME280;31943;51.410;7.564;2023-06-24T12:35:48;100976.66;;;29.06;35.10
46223;BME280;31943;51.410;7.564;2023-06-24T12:38:14;100973.41;;;29.33;33.63
46223;BME280;31943;51.410;7.564;2023-06-24T12:40:39;100960.22;;;29.28;33.29
46223;BME280;31943;51.410;7.564;2023-06-24T12:43:05;100966.56;;;29.27;32.78
46223;BME280;31943;51.410;7.564;2023-06-24T12:45:30;100970.88;;;29.30;33.41
46223;BME280;31943;51.410;7.564;2023-06-24T12:47:58;100965.50;;;29.46;33.72
46223;BME280;31943;51.410;7.564;2023-06-24T12:50:24;100961.91;;;29.61;33.19
46223;BME280;31943;51.410;7.564;2023-06-24T12:52:49;100963.16;;;29.40;33.00